Latest Weather Observations for West Roebuck

IDW60801

Issued at 7:33 pm WST Tuesday 7 July 2015 (issued every 30 minutes, with the page automatically refreshed every 10 minutes)

About weather observations | Map of weather stations | Latest weather observations for WA | Other Formats
Station Details ID: 003096 Name: WEST ROEBUCK Lat: -17.90 Lon: 122.31 Height: 32.0 m
Data from the previous 72 hours. | See also: Recent months for locations in Western Australia
Date/Time
WST
Temp
°C
App
Temp
°C
Dew
Point
Rel
Hum
%
Delta-T
°C
Wind Press
QNH
hPa
Press
MSL
hPa
Rain
since 9 am
mm
Dir
 
Spd
km/h
Gust
km/h
Spd
kts
Gust
kts
07/07:30pm 18.2 - - - - WNW 7 7 4 4 - - 0.0
07/07:00pm 19.3 - - - - WNW 9 9 5 5 - - 0.0
07/06:30pm 20.6 - - - - WSW 9 11 5 6 - - 0.0
07/06:00pm 21.8 - - - - WNW 11 13 6 7 - - 0.0
07/05:30pm 24.1 - - - - WSW 11 17 6 9 - - 0.0
07/05:00pm 28.5 - - - - SW 9 13 5 7 - - 0.0
07/04:30pm 29.7 - - - - SW 13 19 7 10 - - 0.0
07/04:00pm 30.1 - - - - SSW 17 24 9 13 - - 0.0
07/03:30pm 31.3 - - - - WSW 13 19 7 10 - - 0.0
07/03:00pm 32.0 - - - - N 13 19 7 10 - - 0.0
07/02:30pm 32.4 - - - - N 9 22 5 12 - - 0.0
07/02:00pm 31.7 - - - - NNE 11 19 6 10 - - 0.0
07/01:30pm 32.0 - - - - NE 11 20 6 11 - - 0.0
07/01:00pm 32.0 - - - - E 7 30 4 16 - - 0.0
07/12:30pm 31.6 - - - - E 11 28 6 15 - - 0.0
07/12:00pm 32.0 - - - - ENE 15 22 8 12 - - 0.0
07/11:30am 31.3 - - - - ENE 19 32 10 17 - - 0.0
07/11:00am 30.6 - - - - E 17 28 9 15 - - 0.0
07/10:30am 28.9 - - - - E 19 26 10 14 - - 0.0
07/10:00am 27.1 - - - - E 17 26 9 14 - - 0.0
07/09:30am 26.0 - - - - E 19 28 10 15 - - 0.0
07/09:00am 24.3 - - - - E 17 24 9 13 - - 0.0
07/08:30am 22.2 - - - - E 17 30 9 16 - - 0.0
07/08:00am 20.2 - - - - E 13 20 7 11 - - 0.0
07/07:30am 17.6 - - - - ENE 11 17 6 9 - - 0.0
07/07:00am 15.3 - - - - ENE 11 17 6 9 - - 0.0
07/06:30am 14.0 - - - - ENE 11 13 6 7 - - 0.0
07/06:00am 13.3 - - - - ENE 13 17 7 9 - - 0.0
07/05:30am 12.4 - - - - ENE 13 15 7 8 - - 0.0
07/05:00am 11.7 - - - - ENE 11 13 6 7 - - 0.0
07/04:30am 11.0 - - - - ENE 11 13 6 7 - - 0.0
07/04:00am 11.5 - - - - E 11 13 6 7 - - 0.0
07/03:30am 11.8 - - - - E 11 13 6 7 - - 0.0
07/03:00am 10.7 - - - - E 9 11 5 6 - - 0.0
07/02:30am 11.9 - - - - SE 9 9 5 5 - - 0.0
07/02:00am 12.8 - - - - S 6 9 3 5 - - 0.0
07/01:30am 13.4 - - - - CALM 0 0 0 0 - - 0.0
07/01:00am 14.2 - - - - S 11 11 6 6 - - 0.0
07/12:30am 13.4 - - - - CALM 0 6 0 3 - - 0.0
07/12:00am 14.2 - - - - S 7 9 4 5 - - 0.0
 
Date/Time
WST
Temp
°C
App
Temp
°C
Dew
Point
Rel
Hum
%
Delta-T
°C
Wind Press
QNH
hPa
Press
MSL
hPa
Rain
since 9 am
mm
Dir
 
Spd
km/h
Gust
km/h
Spd
kts
Gust
kts
06/11:30pm 13.3 - - - - CALM 0 0 0 0 - - 0.0
06/11:00pm 15.9 - - - - SSW 9 13 5 7 - - 0.0
06/10:30pm 16.3 - - - - SSW 11 11 6 6 - - 0.0
06/10:00pm 17.1 - - - - SSW 11 13 6 7 - - 0.0
06/09:30pm 17.3 - - - - SSW 11 13 6 7 - - 0.0
06/09:00pm 17.3 - - - - SSW 11 13 6 7 - - 0.0
06/08:30pm 15.6 - - - - SW 9 13 5 7 - - 0.0
06/08:00pm 15.9 - - - - SW 9 11 5 6 - - 0.0
06/07:30pm 16.2 - - - - SW 9 11 5 6 - - 0.0
06/07:00pm 17.1 - - - - SW 9 9 5 5 - - 0.0
06/06:30pm 17.2 - - - - WNW 9 11 5 6 - - 0.0
06/06:00pm 19.5 - - - - W 9 11 5 6 - - 0.0
06/05:30pm 23.1 - - - - WSW 11 15 6 8 - - 0.0
06/05:00pm 25.9 - - - - W 13 19 7 10 - - 0.0
06/04:30pm 29.0 - - - - ENE 9 17 5 9 - - 0.0
06/04:00pm 29.4 - - - - NE 13 24 7 13 - - 0.0
06/03:30pm 29.7 - - - - NE 9 13 5 7 - - 0.0
06/03:00pm 29.6 - - - - E 15 22 8 12 - - 0.0
06/02:30pm 29.9 - - - - NNE 13 20 7 11 - - 0.0
06/02:00pm 29.8 - - - - NE 11 24 6 13 - - 0.0
06/01:30pm 30.0 - - - - E 17 24 9 13 - - 0.0
06/01:00pm 29.6 - - - - ENE 13 20 7 11 - - 0.0
06/12:30pm 29.0 - - - - NNE 17 28 9 15 - - 0.0
06/12:00pm 29.3 - - - - E 13 30 7 16 - - 0.0
06/11:30am 28.6 - - - - NE 17 26 9 14 - - 0.0
06/11:00am 28.3 - - - - ENE 13 24 7 13 - - 0.0
06/10:30am 27.2 - - - - E 13 20 7 11 - - 0.0
06/10:00am 25.3 - - - - E 13 24 7 13 - - 0.0
06/09:30am 23.9 - - - - E 17 26 9 14 - - 0.0
06/09:00am 22.4 - - - - E 19 28 10 15 - - 0.0
06/08:30am 20.7 - - - - E 13 24 7 13 - - 0.0
06/08:00am 17.7 - - - - E 7 15 4 8 - - 0.0
06/07:30am 14.8 - - - - E 9 11 5 6 - - 0.0
06/07:29am 14.6 - - - - E 9 11 5 6 - - 0.0
06/07:00am 9.5 - - - - ENE 9 11 5 6 - - 0.0
06/06:30am 6.8 - - - - ENE 11 13 6 7 - - 0.0
06/06:00am 6.7 - - - - ENE 9 9 5 5 - - 0.0
06/05:30am 7.4 - - - - ESE 9 11 5 6 - - 0.0
06/05:00am 7.6 - - - - ESE 11 13 6 7 - - 0.0
06/04:30am 7.6 - - - - ESE 11 13 6 7 - - 0.0
06/04:00am 7.8 - - - - ESE 9 13 5 7 - - 0.0
06/03:30am 8.6 - - - - ESE 11 13 6 7 - - 0.0
06/03:00am 9.4 - - - - ESE 11 13 6 7 - - 0.0
06/02:30am 9.9 - - - - E 11 13 6 7 - - 0.0
06/02:00am 9.6 - - - - E 11 13 6 7 - - 0.0
06/01:30am 10.1 - - - - ESE 9 13 5 7 - - 0.0
06/01:00am 10.6 - - - - E 11 15 6 8 - - 0.0
06/12:30am 11.0 - - - - ESE 11 13 6 7 - - 0.0
06/12:00am 11.4 - - - - ESE 11 13 6 7 - - 0.0
 
Date/Time
WST
Temp
°C
App
Temp
°C
Dew
Point
Rel
Hum
%
Delta-T
°C
Wind Press
QNH
hPa
Press
MSL
hPa
Rain
since 9 am
mm
Dir
 
Spd
km/h
Gust
km/h
Spd
kts
Gust
kts
05/11:30pm 12.1 - - - - ESE 11 13 6 7 - - 0.0
05/11:00pm 13.8 - - - - ESE 13 17 7 9 - - 0.0
05/10:30pm 13.5 - - - - ESE 11 13 6 7 - - 0.0
05/10:00pm 14.7 - - - - SE 11 15 6 8 - - 0.0
05/09:30pm 15.4 - - - - SSE 11 13 6 7 - - 0.0
05/09:00pm 15.7 - - - - SSW 9 11 5 6 - - 0.0
05/08:30pm 16.1 - - - - SSW 13 13 7 7 - - 0.0
05/08:00pm 16.1 - - - - S 11 13 6 7 - - 0.0
05/07:30pm 15.8 - - - - S 7 11 4 6 - - 0.0
05/07:00pm 17.8 - - - - S 9 11 5 6 - - 0.0
05/06:30pm 18.3 - - - - SSW 9 13 5 7 - - 0.0
05/06:00pm 19.4 - - - - SSW 9 11 5 6 - - 0.0
05/05:30pm 22.0 - - - - S 9 11 5 6 - - 0.0
05/05:00pm 25.1 - - - - S 9 11 5 6 - - 0.0
05/04:30pm 27.2 - - - - SSE 13 17 7 9 - - 0.0
05/04:00pm 28.5 - - - - SSE 15 20 8 11 - - 0.0
05/03:30pm 29.6 - - - - SE 11 19 6 10 - - 0.0
05/03:00pm 29.2 - - - - E 11 17 6 9 - - 0.0
05/02:30pm 28.9 - - - - E 7 17 4 9 - - 0.0
05/02:00pm 29.8 - - - - ESE 13 20 7 11 - - 0.0
05/01:30pm 29.3 - - - - NE 9 20 5 11 - - 0.0
05/01:00pm 29.0 - - - - ESE 11 22 6 12 - - 0.0
05/12:30pm 28.2 - - - - ESE 13 24 7 13 - - 0.0
05/12:00pm 28.4 - - - - E 9 20 5 11 - - 0.0
05/11:30am 27.7 - - - - ENE 15 24 8 13 - - 0.0
05/11:00am 27.6 - - - - E 17 26 9 14 - - 0.0
05/10:30am 26.1 - - - - ENE 17 28 9 15 - - 0.0
05/10:00am 25.4 - - - - ENE 17 28 9 15 - - 0.0
05/09:30am 24.4 - - - - ENE 17 24 9 13 - - 0.0
05/09:00am 22.9 - - - - E 17 30 9 16 - - 0.0
05/08:30am 20.7 - - - - E 15 24 8 13 - - 0.0
05/08:00am 18.4 - - - - E 11 17 6 9 - - 0.0
05/07:30am 16.1 - - - - ENE 9 13 5 7 - - 0.0
05/07:00am 12.8 - - - - ENE 11 13 6 7 - - 0.0
05/06:30am 10.3 - - - - ENE 11 13 6 7 - - 0.0
05/06:00am 10.2 - - - - ENE 11 13 6 7 - - 0.0
05/05:30am 9.6 - - - - ENE 11 13 6 7 - - 0.0
05/05:00am 8.4 - - - - E 11 13 6 7 - - 0.0
05/04:30am 9.6 - - - - ESE 9 11 5 6 - - 0.0
05/04:00am 10.8 - - - - ESE 11 13 6 7 - - 0.0
05/03:30am 12.7 - - - - ESE 11 15 6 8 - - 0.0
05/03:00am 13.9 - - - - ESE 13 15 7 8 - - 0.0
05/02:30am 14.4 - - - - ESE 13 17 7 9 - - 0.0
05/02:00am 15.5 - - - - ESE 13 20 7 11 - - 0.0
05/01:30am 16.0 - - - - ESE 15 19 8 10 - - 0.0
05/01:00am 16.4 - - - - ESE 15 20 8 11 - - 0.0
05/12:30am 17.6 - - - - ESE 15 24 8 13 - - 0.0
05/12:00am 16.5 - - - - ESE 13 19 7 10 - - 0.0
 
Date/Time
WST
Temp
°C
App
Temp
°C
Dew
Point
Rel
Hum
%
Delta-T
°C
Wind Press
QNH
hPa
Press
MSL
hPa
Rain
since 9 am
mm
Dir
 
Spd
km/h
Gust
km/h
Spd
kts
Gust
kts
04/11:30pm 16.6 - - - - ESE 13 17 7 9 - - 0.0
04/11:00pm 15.9 - - - - ESE 11 15 6 8 - - 0.0
04/10:30pm 15.8 - - - - E 9 9 5 5 - - 0.0
04/10:00pm 18.1 - - - - ESE 11 15 6 8 - - 0.0
04/09:30pm 17.2 - - - - ESE 11 13 6 7 - - 0.0
04/09:00pm 17.1 - - - - ESE 11 13 6 7 - - 0.0
04/08:30pm 18.6 - - - - ESE 11 13 6 7 - - 0.0
04/08:00pm 20.5 - - - - ESE 9 13 5 7 - - 0.0

Other Formats:

Comma delimited format used in spreadsheet applications
http://www.bom.gov.au/fwo/IDW60801/IDW60801.95204.axf

JavaScript Object Notation format (JSON) in row-major order
http://www.bom.gov.au/fwo/IDW60801/IDW60801.95204.json